createdAt,value
2018-07-21T00:00:32.946Z,100274.31
2018-07-21T00:01:33.762Z,100274.22
2018-07-21T00:02:34.526Z,100273.69
2018-07-21T00:03:35.304Z,100273.79
2018-07-21T00:04:36.076Z,100273.62
2018-07-21T00:05:36.856Z,100273.17
2018-07-21T00:06:37.661Z,100272.84
2018-07-21T00:07:38.443Z,100273.30
2018-07-21T00:08:39.223Z,100273.94
2018-07-21T00:09:39.998Z,100273.92
2018-07-21T00:10:40.779Z,100273.98
2018-07-21T00:11:41.579Z,100273.77
2018-07-21T00:12:42.359Z,100273.58
2018-07-21T00:13:43.129Z,100273.22
2018-07-21T00:14:43.905Z,100273.55
2018-07-21T00:15:44.687Z,100273.36
2018-07-21T00:17:14.691Z,100278.06
2018-07-21T00:18:15.465Z,100277.55
2018-07-21T00:19:16.253Z,100277.30
2018-07-21T00:20:17.015Z,100277.02
2018-07-21T00:21:17.791Z,100277.21
2018-07-21T00:22:18.592Z,100276.92
2018-07-21T00:23:19.368Z,100276.64
2018-07-21T00:24:20.145Z,100276.66
2018-07-21T00:25:20.920Z,100276.48
2018-07-21T00:26:21.693Z,100276.50
2018-07-21T00:27:22.502Z,100276.56
2018-07-21T00:28:23.291Z,100276.20
2018-07-21T00:29:24.052Z,100276.53
2018-07-21T00:30:24.829Z,100276.27
2018-07-21T00:31:25.603Z,100275.84
2018-07-21T00:32:26.407Z,100275.16
2018-07-21T00:33:27.192Z,100274.73
2018-07-21T00:34:27.966Z,100274.57
2018-07-21T00:35:28.741Z,100274.20
2018-07-21T00:36:29.532Z,100273.34
2018-07-21T00:37:30.332Z,100273.05
2018-07-21T00:38:31.118Z,100272.95
2018-07-21T00:39:31.884Z,100272.06
2018-07-21T00:40:32.668Z,100272.24
2018-07-21T00:41:33.433Z,100271.94
2018-07-21T00:42:34.248Z,100271.19
2018-07-21T00:43:35.014Z,100271.67
2018-07-21T00:44:35.798Z,100271.57
2018-07-21T00:45:36.565Z,100271.51
2018-07-21T00:46:37.347Z,100271.30
2018-07-21T00:47:38.148Z,100271.48
2018-07-21T00:48:39.928Z,100270.35
2018-07-21T00:49:39.700Z,100270.09
2018-07-21T00:50:40.480Z,100269.73
2018-07-21T00:51:41.253Z,100269.72
2018-07-21T00:52:42.070Z,100268.94
2018-07-21T00:53:42.838Z,100267.58
2018-07-21T00:54:43.619Z,100266.92
2018-07-21T00:55:44.391Z,100266.52
2018-07-21T00:56:45.169Z,100265.66
2018-07-21T00:57:45.973Z,100264.27
2018-07-21T00:58:46.752Z,100263.44
2018-07-21T00:59:47.533Z,100262.57
2018-07-21T01:00:48.310Z,100261.80
2018-07-21T01:01:49.175Z,100261.35
2018-07-21T01:02:48.904Z,100260.75
2018-07-21T01:03:50.679Z,100260.36
2018-07-21T01:04:51.464Z,100259.67
2018-07-21T01:05:52.234Z,100259.30
2018-07-21T01:06:53.011Z,100258.98
2018-07-21T01:07:53.817Z,100258.32
2018-07-21T01:08:54.601Z,100258.14
2018-07-21T01:09:55.372Z,100257.69
2018-07-21T01:10:56.152Z,100257.70
2018-07-21T01:11:56.952Z,100257.85
2018-07-21T01:12:57.739Z,100258.34
2018-07-21T01:13:58.521Z,100258.19
2018-07-21T01:14:59.299Z,100258.36
2018-07-21T01:16:00.072Z,100258.06
2018-07-21T01:17:00.874Z,100257.67
2018-07-21T01:18:02.655Z,100257.02
2018-07-21T01:19:02.433Z,100256.78
2018-07-21T01:20:03.211Z,100256.51
2018-07-21T01:21:03.987Z,100255.88
2018-07-21T01:22:04.761Z,100255.97
2018-07-21T01:23:05.563Z,100256.09
2018-07-21T01:24:06.428Z,100256.59
2018-07-21T01:25:06.127Z,100256.92
2018-07-21T01:26:07.905Z,100257.23
2018-07-21T01:27:08.686Z,100257.76
2018-07-21T01:28:09.492Z,100257.96
2018-07-21T01:29:10.279Z,100258.21
2018-07-21T01:30:11.043Z,100258.39
2018-07-21T01:31:11.826Z,100258.19
2018-07-21T01:32:12.598Z,100258.44
2018-07-21T01:33:13.402Z,100258.61
2018-07-21T01:34:14.176Z,100258.41
2018-07-21T01:35:14.952Z,100258.20
2018-07-21T01:36:15.732Z,100258.47
2018-07-21T01:37:16.510Z,100258.86
2018-07-21T01:38:17.333Z,100259.03
2018-07-21T01:39:18.096Z,100259.04
2018-07-21T01:40:18.875Z,100259.25
2018-07-21T01:41:19.647Z,100259.59
2018-07-21T01:42:20.427Z,100259.84
2018-07-21T01:43:21.230Z,100259.75
2018-07-21T01:44:22.013Z,100259.16
2018-07-21T01:45:22.787Z,100258.96
2018-07-21T01:46:23.565Z,100258.55
2018-07-21T01:47:24.340Z,100258.07
2018-07-21T01:48:25.151Z,100257.39
2018-07-21T01:49:25.922Z,100256.88
2018-07-21T01:50:26.701Z,100256.48
2018-07-21T01:51:27.472Z,100255.91
2018-07-21T01:52:28.253Z,100255.30
2018-07-21T01:53:29.052Z,100254.66
2018-07-21T01:54:29.834Z,100253.46
2018-07-21T01:55:30.606Z,100253.08
2018-07-21T01:56:31.382Z,100252.28
2018-07-21T01:57:32.182Z,100251.95
2018-07-21T01:58:32.974Z,100251.27
2018-07-21T01:59:33.755Z,100250.44
2018-07-21T02:00:34.527Z,100249.84
2018-07-21T02:01:35.305Z,100248.81
2018-07-21T02:02:36.077Z,100248.11
2018-07-21T02:03:36.884Z,100247.67
2018-07-21T02:04:36.660Z,100247.58
2018-07-21T02:05:38.438Z,100247.22
2018-07-21T02:06:42.102Z,100247.02
2018-07-21T02:07:40.398Z,100247.02
2018-07-21T02:08:41.117Z,100247.13
2018-07-21T02:19:07.361Z,100241.11
2018-07-21T02:20:08.172Z,100233.45
2018-07-21T02:21:08.944Z,100233.20
2018-07-21T02:22:09.721Z,100233.20
2018-07-21T02:23:10.494Z,100233.34
2018-07-21T02:24:11.274Z,100233.68
2018-07-21T02:25:12.072Z,100233.19
2018-07-21T02:26:12.847Z,100233.09
2018-07-21T02:27:13.622Z,100232.83
2018-07-21T02:28:14.401Z,100232.98
2018-07-21T02:29:15.177Z,100233.31
2018-07-21T02:30:15.987Z,100233.39
2018-07-21T02:31:16.757Z,100233.54
2018-07-21T02:32:17.535Z,100233.52
2018-07-21T02:33:18.307Z,100233.95
2018-07-21T02:34:19.085Z,100233.81
2018-07-21T02:35:19.916Z,100234.27
2018-07-21T02:36:20.715Z,100233.92
2018-07-21T02:37:21.464Z,100234.00
2018-07-21T02:38:22.252Z,100233.91
2018-07-21T02:39:23.015Z,100234.16
2018-07-21T02:40:23.814Z,100234.31
2018-07-21T02:41:24.597Z,100234.81
2018-07-21T02:42:25.368Z,100234.62
2018-07-21T02:43:26.147Z,100235.06
2018-07-21T02:44:26.918Z,100235.42
2018-07-21T02:45:27.727Z,100235.84
2018-07-21T02:46:28.500Z,100236.00
2018-07-21T02:47:29.272Z,100236.05
2018-07-21T02:48:30.048Z,100236.55
2018-07-21T02:49:30.830Z,100236.84
2018-07-21T02:50:31.628Z,100237.75
2018-07-21T02:51:32.408Z,100238.45
2018-07-21T02:52:33.184Z,100239.88
2018-07-21T02:53:33.958Z,100240.25
2018-07-21T02:54:34.734Z,100240.58
2018-07-21T02:55:35.537Z,100240.80
2018-07-21T02:56:36.313Z,100240.99
2018-07-21T02:57:37.104Z,100241.48
2018-07-21T02:58:37.866Z,100242.58
2018-07-21T02:59:38.725Z,100242.77
2018-07-21T03:00:38.455Z,100242.69
2018-07-21T03:01:40.234Z,100242.75
2018-07-21T03:02:41.010Z,100242.62
2018-07-21T03:03:41.787Z,100242.83
2018-07-21T03:04:42.564Z,100242.87
2018-07-21T03:05:43.365Z,100243.05
2018-07-21T03:06:44.142Z,100243.37
2018-07-21T03:07:44.913Z,100244.03
2018-07-21T03:08:45.688Z,100244.70
2018-07-21T03:09:46.485Z,100244.95
2018-07-21T03:10:47.272Z,100244.93
2018-07-21T03:11:48.055Z,100245.47
2018-07-21T03:12:48.828Z,100246.12
2018-07-21T03:13:49.599Z,100246.20
2018-07-21T03:14:50.392Z,100246.87
2018-07-21T03:15:51.194Z,100246.85
2018-07-21T03:16:51.974Z,100247.17
2018-07-21T03:17:52.746Z,100247.64
2018-07-21T03:18:53.528Z,100247.72
2018-07-21T03:19:54.296Z,100247.83
2018-07-21T03:20:55.101Z,100248.11
2018-07-21T03:21:55.888Z,100248.53
2018-07-21T03:22:56.651Z,100248.61
2018-07-21T03:23:57.426Z,100248.72
2018-07-21T03:24:58.205Z,100249.01
2018-07-21T03:25:59.005Z,100249.41
2018-07-21T03:26:59.797Z,100250.36
2018-07-21T03:28:00.563Z,100250.92
2018-07-21T03:29:01.339Z,100251.61
2018-07-21T03:30:02.111Z,100252.12
2018-07-21T03:31:01.965Z,100252.81
2018-07-21T03:32:02.703Z,100253.42
2018-07-21T03:33:04.476Z,100254.27
2018-07-21T03:34:05.250Z,100255.27
2018-07-21T03:35:06.026Z,100256.07
2018-07-21T03:36:06.831Z,100257.33
2018-07-21T03:37:07.610Z,100258.80
2018-07-21T03:38:08.390Z,100259.73
2018-07-21T03:39:09.165Z,100261.84
2018-07-21T03:40:09.941Z,100264.09
2018-07-21T03:41:10.743Z,100266.78
2018-07-21T03:42:11.530Z,100270.48
2018-07-21T03:43:12.292Z,100275.89
2018-07-21T03:44:13.070Z,100282.48
2018-07-21T03:45:13.851Z,100288.08
2018-07-21T03:46:15.652Z,100293.83
2018-07-21T03:47:15.425Z,100298.36
2018-07-21T03:48:16.216Z,100302.36
2018-07-21T03:49:16.991Z,100306.30
2018-07-21T03:50:17.767Z,100308.94
2018-07-21T03:51:18.570Z,100311.13
2018-07-21T03:52:19.352Z,100313.36
2018-07-21T03:53:20.120Z,100315.80
2018-07-21T03:54:20.979Z,100319.17
2018-07-21T03:55:20.684Z,100322.17
2018-07-21T03:56:21.496Z,100325.06
2018-07-21T03:57:23.272Z,100327.50
2018-07-21T03:58:24.042Z,100329.08
2018-07-21T03:59:24.819Z,100329.47
2018-07-21T04:00:25.609Z,100329.92
2018-07-21T04:01:26.404Z,100330.12
2018-07-21T04:02:27.178Z,100330.64
2018-07-21T04:03:27.953Z,100332.41
2018-07-21T04:04:28.729Z,100333.34
2018-07-21T04:05:29.505Z,100334.34
2018-07-21T04:06:30.307Z,100335.70
2018-07-21T04:07:31.081Z,100336.76
2018-07-21T04:08:31.860Z,100337.08
2018-07-21T04:09:33.098Z,100337.78
2018-07-21T04:10:33.349Z,100338.24
2018-07-21T04:11:32.641Z,100338.48
2018-07-21T04:22:03.360Z,100339.90
2018-07-21T04:23:03.163Z,100332.24
2018-07-21T04:24:03.969Z,100331.87
2018-07-21T04:25:05.722Z,100331.81
2018-07-21T04:26:06.496Z,100332.83
2018-07-21T04:27:07.273Z,100333.77
2018-07-21T04:28:08.076Z,100334.45
2018-07-21T04:29:08.848Z,100334.92
2018-07-21T04:30:09.628Z,100335.23
2018-07-21T04:31:10.409Z,100335.19
2018-07-21T04:32:11.174Z,100335.37
2018-07-21T04:33:11.973Z,100335.52
2018-07-21T04:34:12.783Z,100335.45
2018-07-21T04:35:12.770Z,100335.94
2018-07-21T04:36:13.494Z,100336.30
2018-07-21T04:37:14.263Z,100336.47
2018-07-21T04:38:16.056Z,100337.03
2018-07-21T04:39:16.861Z,100337.32
2018-07-21T04:40:17.627Z,100337.69
2018-07-21T04:41:18.449Z,100338.22
2018-07-21T04:42:18.199Z,100339.19
2018-07-21T04:43:20.004Z,100340.06
2018-07-21T04:44:20.781Z,100340.59
2018-07-21T04:45:21.553Z,100340.91
2018-07-21T04:46:22.329Z,100341.71
2018-07-21T04:47:23.104Z,100341.75
2018-07-21T04:48:23.909Z,100341.23
2018-07-21T04:49:24.689Z,100341.56
2018-07-21T04:50:25.460Z,100341.73
2018-07-21T04:51:26.243Z,100341.52
2018-07-21T04:52:27.012Z,100341.72
2018-07-21T04:53:27.815Z,100342.00
2018-07-21T04:54:28.591Z,100342.26
2018-07-21T04:55:29.369Z,100342.30
2018-07-21T04:56:30.144Z,100341.89
2018-07-21T04:57:31.917Z,100341.34
2018-07-21T04:58:31.718Z,100340.88
2018-07-21T04:59:32.505Z,100341.00
2018-07-21T05:00:33.281Z,100340.74
2018-07-21T05:01:34.056Z,100340.67
2018-07-21T05:02:34.829Z,100340.86
2018-07-21T05:03:35.633Z,100341.20
2018-07-21T05:04:36.403Z,100341.11
2018-07-21T05:05:37.180Z,100340.89
2018-07-21T05:06:37.954Z,100340.58
2018-07-21T05:07:38.732Z,100340.92
2018-07-21T05:08:39.543Z,100340.84
2018-07-21T05:09:40.312Z,100340.64
2018-07-21T05:10:41.091Z,100340.81
2018-07-21T05:11:41.864Z,100341.09
2018-07-21T05:12:42.641Z,100340.83
2018-07-21T05:13:44.445Z,100340.58
2018-07-21T05:14:44.215Z,100340.33
2018-07-21T05:15:44.993Z,100340.08
2018-07-21T05:16:45.768Z,100340.21
2018-07-21T05:17:46.543Z,100340.06
2018-07-21T05:18:47.360Z,100339.64
2018-07-21T05:19:48.138Z,100339.64
2018-07-21T05:20:48.907Z,100338.95
2018-07-21T05:21:49.694Z,100338.52
2018-07-21T05:22:50.459Z,100338.08
2018-07-21T05:23:52.266Z,100337.64
2018-07-21T05:24:52.044Z,100337.67
2018-07-21T05:25:52.822Z,100337.28
2018-07-21T05:26:53.592Z,100337.13
2018-07-21T05:27:54.374Z,100337.23
2018-07-21T05:28:55.172Z,100336.95
2018-07-21T05:29:55.958Z,100336.29
2018-07-21T05:30:56.731Z,100335.87
2018-07-21T05:31:57.523Z,100335.34
2018-07-21T05:32:58.286Z,100334.59
2018-07-21T05:33:59.099Z,100334.34
2018-07-21T05:34:59.868Z,100334.10
2018-07-21T05:36:00.648Z,100333.69
2018-07-21T05:37:01.416Z,100333.38
2018-07-21T05:38:02.196Z,100333.30
2018-07-21T05:39:03.017Z,100332.81
2018-07-21T05:40:03.775Z,100333.05
2018-07-21T05:41:04.549Z,100333.24
2018-07-21T05:42:05.331Z,100333.27
2018-07-21T05:43:06.106Z,100332.95
2018-07-21T05:44:06.920Z,100333.31
2018-07-21T05:45:07.771Z,100333.13
2018-07-21T05:46:07.480Z,100333.47
2018-07-21T05:47:09.239Z,100333.20
2018-07-21T05:48:10.024Z,100333.28
2018-07-21T05:49:10.837Z,100333.58
2018-07-21T05:50:11.600Z,100333.80
2018-07-21T05:51:12.383Z,100333.47
2018-07-21T05:52:13.161Z,100333.69
2018-07-21T05:53:13.985Z,100333.69
2018-07-21T05:54:13.749Z,100334.04
2018-07-21T05:55:15.523Z,100334.66
2018-07-21T05:56:16.298Z,100334.67
2018-07-21T05:57:17.076Z,100334.53
2018-07-21T05:58:17.862Z,100335.41
2018-07-21T05:59:18.666Z,100335.73
2018-07-21T06:00:19.447Z,100336.02
2018-07-21T06:01:20.222Z,100335.93
2018-07-21T06:02:20.997Z,100336.05
2018-07-21T06:03:21.773Z,100335.95
2018-07-21T06:04:22.583Z,100335.98
2018-07-21T06:05:23.362Z,100335.73
2018-07-21T06:06:24.134Z,100335.32
2018-07-21T06:07:24.910Z,100334.91
2018-07-21T06:08:25.685Z,100334.06
2018-07-21T06:09:25.491Z,100333.52
2018-07-21T06:10:27.263Z,100333.26
2018-07-21T06:11:28.040Z,100332.63
2018-07-21T06:12:28.823Z,100332.23
2018-07-21T06:13:29.592Z,100331.97
2018-07-21T06:14:30.403Z,100331.92
2018-07-21T06:15:31.177Z,100331.28
2018-07-21T06:16:32.393Z,100331.02
2018-07-21T06:17:33.719Z,100330.90
2018-07-21T06:18:32.006Z,100330.85
2018-07-21T06:20:00.488Z,100332.81
2018-07-21T06:21:01.264Z,100323.22
2018-07-21T06:22:02.036Z,100323.22
2018-07-21T06:23:02.811Z,100323.30
2018-07-21T06:24:03.586Z,100322.85
2018-07-21T06:25:04.391Z,100322.45
2018-07-21T06:26:05.169Z,100322.02
2018-07-21T06:27:05.950Z,100321.80
2018-07-21T06:28:06.794Z,100321.85
2018-07-21T06:29:06.503Z,100321.61
2018-07-21T06:30:08.305Z,100321.99
2018-07-21T06:31:09.092Z,100321.66
2018-07-21T06:32:09.856Z,100322.22
2018-07-21T06:33:10.640Z,100322.56
2018-07-21T06:34:11.408Z,100322.75
2018-07-21T06:35:12.218Z,100323.70
2018-07-21T06:36:12.992Z,100324.32
2018-07-21T06:37:13.766Z,100324.76
2018-07-21T06:38:14.538Z,100325.54
2018-07-21T06:39:15.318Z,100326.44
2018-07-21T06:40:16.118Z,100327.42
2018-07-21T06:41:17.896Z,100328.13
2018-07-21T06:42:17.668Z,100328.40
2018-07-21T06:43:18.454Z,100328.56
2018-07-21T06:44:19.231Z,100329.00
2018-07-21T06:45:20.030Z,100329.14
2018-07-21T06:46:20.807Z,100328.98
2018-07-21T06:47:21.591Z,100328.84
2018-07-21T06:48:22.361Z,100328.77
2018-07-21T06:49:23.140Z,100328.88
2018-07-21T06:50:23.943Z,100329.32
2018-07-21T06:51:24.720Z,100329.83
2018-07-21T06:52:25.495Z,100330.19
2018-07-21T06:53:26.273Z,100330.94
2018-07-21T06:54:27.091Z,100331.25
2018-07-21T06:55:26.858Z,100332.53
2018-07-21T06:56:28.645Z,100332.58
2018-07-21T06:57:29.410Z,100333.52
2018-07-21T06:58:30.193Z,100333.97
2018-07-21T06:59:31.053Z,100334.51
2018-07-21T07:00:30.799Z,100334.38
2018-07-21T07:01:32.572Z,100334.58
2018-07-21T07:02:33.336Z,100335.17
2018-07-21T07:03:34.117Z,100335.90
2018-07-21T07:04:34.926Z,100335.86
2018-07-21T07:05:35.689Z,100336.55
2018-07-21T07:06:36.468Z,100336.30
2018-07-21T07:07:37.237Z,100336.86
2018-07-21T07:08:38.018Z,100337.53
2018-07-21T07:09:38.793Z,100337.55
2018-07-21T07:10:39.595Z,100337.53
2018-07-21T07:11:40.373Z,100337.81
2018-07-21T07:12:41.148Z,100338.20
2018-07-21T07:13:41.932Z,100339.33
2018-07-21T07:14:42.711Z,100339.97
2018-07-21T07:15:43.510Z,100340.02
2018-07-21T07:16:44.287Z,100340.66
2018-07-21T07:17:45.072Z,100341.40
2018-07-21T07:18:45.844Z,100342.27
2018-07-21T07:19:46.617Z,100342.24
2018-07-21T07:20:47.422Z,100343.05
2018-07-21T07:21:48.207Z,100344.12
2018-07-21T07:22:48.982Z,100345.03
2018-07-21T07:23:49.757Z,100345.23
2018-07-21T07:24:50.535Z,100345.71
2018-07-21T07:25:51.345Z,100346.31
2018-07-21T07:26:52.118Z,100346.57
2018-07-21T07:27:52.899Z,100346.38
2018-07-21T07:28:53.675Z,100346.88
2018-07-21T07:29:54.450Z,100347.08
2018-07-21T07:30:55.271Z,100347.21
2018-07-21T07:31:56.043Z,100347.16
2018-07-21T07:32:56.822Z,100347.73
2018-07-21T07:33:57.597Z,100348.11
2018-07-21T07:34:58.378Z,100348.31
2018-07-21T07:35:59.276Z,100348.55
2018-07-21T07:36:58.976Z,100349.34
2018-07-21T07:38:00.754Z,100349.50
2018-07-21T07:39:01.534Z,100349.70
2018-07-21T07:40:02.309Z,100350.26
2018-07-21T07:41:03.111Z,100350.38
2018-07-21T07:42:03.906Z,100350.31
2018-07-21T07:43:03.665Z,100350.70
2018-07-21T07:44:05.441Z,100351.28
2018-07-21T07:45:06.224Z,100352.01
2018-07-21T07:46:07.019Z,100352.55
2018-07-21T07:47:07.799Z,100352.63
2018-07-21T07:48:08.574Z,100353.38
2018-07-21T07:49:09.351Z,100353.67
2018-07-21T07:50:10.126Z,100354.05
2018-07-21T07:51:09.951Z,100353.47
2018-07-21T07:52:11.734Z,100353.88
2018-07-21T07:53:12.496Z,100353.64
2018-07-21T07:54:13.278Z,100353.98
2018-07-21T07:55:14.049Z,100354.09
2018-07-21T07:56:14.853Z,100354.13
2018-07-21T07:57:15.628Z,100354.91
2018-07-21T07:58:17.412Z,100354.80
2018-07-21T07:59:17.179Z,100354.62
2018-07-21T08:00:17.962Z,100354.75
2018-07-21T08:01:18.790Z,100355.27
2018-07-21T08:02:18.542Z,100355.05
2018-07-21T08:03:20.322Z,100355.20
2018-07-21T08:04:21.107Z,100354.88
2018-07-21T08:05:21.870Z,100354.55
2018-07-21T08:06:22.676Z,100354.55
2018-07-21T08:07:23.451Z,100354.08
2018-07-21T08:08:24.237Z,100353.39
2018-07-21T08:09:24.002Z,100352.80
2018-07-21T08:10:25.777Z,100352.23
2018-07-21T08:11:26.581Z,100351.31
2018-07-21T08:12:27.363Z,100350.61
2018-07-21T08:13:28.138Z,100349.80
2018-07-21T08:14:29.339Z,100348.91
2018-07-21T08:15:29.602Z,100348.67
2018-07-21T08:16:28.918Z,100347.41
2018-07-21T08:17:37.321Z,100338.81
2018-07-21T08:18:38.106Z,100339.10
2018-07-21T08:19:38.872Z,100339.00
2018-07-21T08:20:39.650Z,100339.11
2018-07-21T08:21:40.517Z,100339.36
2018-07-21T08:22:41.296Z,100339.53
2018-07-21T08:23:42.072Z,100339.88
2018-07-21T08:24:42.850Z,100340.49
2018-07-21T08:25:44.623Z,100339.80
2018-07-21T08:26:44.428Z,100340.05
2018-07-21T08:27:45.226Z,100340.02
2018-07-21T08:28:45.991Z,100340.54
2018-07-21T08:29:46.772Z,100340.41
2018-07-21T08:30:47.548Z,100340.31
2018-07-21T08:31:48.352Z,100340.33
2018-07-21T08:32:49.133Z,100340.36
2018-07-21T08:33:49.911Z,100340.03
2018-07-21T08:34:50.687Z,100339.53
2018-07-21T08:35:51.462Z,100339.53
2018-07-21T08:36:52.272Z,100339.62
2018-07-21T08:37:53.048Z,100339.11
2018-07-21T08:38:53.827Z,100339.36
2018-07-21T08:39:54.602Z,100339.03
2018-07-21T08:40:55.383Z,100339.00
2018-07-21T08:41:56.203Z,100338.55
2018-07-21T08:42:56.969Z,100338.21
2018-07-21T08:43:57.752Z,100337.63
2018-07-21T08:44:58.526Z,100337.64
2018-07-21T08:45:59.304Z,100337.66
2018-07-21T08:47:00.132Z,100337.39
2018-07-21T08:48:00.894Z,100337.53
2018-07-21T08:49:01.678Z,100337.60
2018-07-21T08:50:02.446Z,100337.44
2018-07-21T08:51:03.229Z,100337.86
2018-07-21T08:52:04.028Z,100337.70
2018-07-21T08:53:04.812Z,100338.13
2018-07-21T08:54:05.591Z,100337.52
2018-07-21T08:55:06.363Z,100337.46
2018-07-21T08:56:07.202Z,100338.05
2018-07-21T08:57:06.955Z,100338.91
2018-07-21T08:58:08.723Z,100339.02
2018-07-21T08:59:09.499Z,100339.08
2018-07-21T09:00:10.279Z,100338.93
2018-07-21T09:01:11.052Z,100339.09
2018-07-21T09:02:11.862Z,100339.36
2018-07-21T09:03:12.637Z,100339.62
2018-07-21T09:04:13.413Z,100339.77
2018-07-21T09:05:14.191Z,100340.06
2018-07-21T09:06:14.981Z,100340.56
2018-07-21T09:07:15.768Z,100341.09
2018-07-21T09:08:16.552Z,100342.11
2018-07-21T09:09:17.324Z,100342.82
2018-07-21T09:10:18.102Z,100343.09
2018-07-21T09:11:18.878Z,100343.42
2018-07-21T09:12:19.679Z,100343.92
2018-07-21T09:13:20.454Z,100344.38
2018-07-21T09:14:21.237Z,100344.77
2018-07-21T09:15:22.014Z,100345.33
2018-07-21T09:16:22.790Z,100345.56
2018-07-21T09:17:23.598Z,100346.27
2018-07-21T09:18:24.379Z,100346.41
2018-07-21T09:19:25.148Z,100346.68
2018-07-21T09:20:25.931Z,100347.81
2018-07-21T09:21:26.763Z,100348.56
2018-07-21T09:22:26.508Z,100349.11
2018-07-21T09:23:28.283Z,100350.03
2018-07-21T09:24:29.056Z,100351.10
2018-07-21T09:25:29.833Z,100351.78
2018-07-21T09:26:30.605Z,100352.63
2018-07-21T09:27:31.410Z,100352.96
2018-07-21T09:28:32.192Z,100353.52
2018-07-21T09:29:32.967Z,100354.27
2018-07-21T09:30:33.747Z,100355.11
2018-07-21T09:31:34.527Z,100355.83
2018-07-21T09:32:35.328Z,100356.27
2018-07-21T09:33:36.101Z,100357.17
2018-07-21T09:34:36.879Z,100358.13
2018-07-21T09:35:37.661Z,100358.59
2018-07-21T09:36:38.430Z,100359.78
2018-07-21T09:37:39.243Z,100360.75
2018-07-21T09:38:40.103Z,100361.49
2018-07-21T09:39:40.804Z,100362.37
2018-07-21T09:40:41.582Z,100363.59
2018-07-21T09:41:42.356Z,100364.68
2018-07-21T09:42:43.170Z,100365.56
2018-07-21T09:43:43.945Z,100366.13
2018-07-21T09:44:44.732Z,100366.41
2018-07-21T09:45:45.495Z,100366.84
2018-07-21T09:46:46.355Z,100367.67
2018-07-21T09:47:46.100Z,100367.89
2018-07-21T09:48:47.864Z,100367.59
2018-07-21T09:49:48.647Z,100368.11
2018-07-21T09:50:49.422Z,100369.09
2018-07-21T09:51:51.197Z,100369.16
2018-07-21T09:52:51.002Z,100369.90
2018-07-21T09:53:51.783Z,100370.26
2018-07-21T09:54:52.560Z,100370.34
2018-07-21T09:55:52.466Z,100371.02
2018-07-21T09:56:53.125Z,100371.39
2018-07-21T09:57:54.922Z,100371.80
2018-07-21T09:58:55.707Z,100372.42
2018-07-21T09:59:56.474Z,100372.77
2018-07-21T10:00:57.261Z,100372.83
2018-07-21T10:01:58.024Z,100373.46
2018-07-21T10:02:58.832Z,100373.88
2018-07-21T10:03:59.609Z,100374.30
2018-07-21T10:05:00.383Z,100374.92
2018-07-21T10:06:01.157Z,100375.77
2018-07-21T10:07:01.935Z,100376.29
2018-07-21T10:08:02.739Z,100377.16
2018-07-21T10:09:03.534Z,100377.94
2018-07-21T10:10:04.730Z,100378.61
2018-07-21T10:13:52.091Z,100389.50
2018-07-21T10:14:52.867Z,100381.52
2018-07-21T10:15:53.650Z,100381.52
2018-07-21T10:16:54.410Z,100381.59
2018-07-21T10:17:55.201Z,100381.66
2018-07-21T10:18:55.991Z,100382.05
2018-07-21T10:19:56.765Z,100382.19
2018-07-21T10:20:57.538Z,100382.26
2018-07-21T10:21:58.397Z,100382.72
2018-07-21T10:22:58.107Z,100382.55
2018-07-21T10:23:59.899Z,100382.87
2018-07-21T10:25:00.674Z,100382.86
2018-07-21T10:26:01.454Z,100383.58
2018-07-21T10:27:02.229Z,100384.19
2018-07-21T10:28:02.997Z,100384.18
2018-07-21T10:29:03.801Z,100384.59
2018-07-21T10:30:04.629Z,100384.70
2018-07-21T10:31:04.352Z,100385.04
2018-07-21T10:32:06.125Z,100385.39
2018-07-21T10:33:06.961Z,100385.91
2018-07-21T10:34:06.707Z,100386.58
2018-07-21T10:35:08.492Z,100386.78
2018-07-21T10:36:09.264Z,100387.22
2018-07-21T10:37:10.037Z,100387.02
2018-07-21T10:38:10.890Z,100387.41
2018-07-21T10:39:10.618Z,100387.48
2018-07-21T10:40:12.393Z,100387.20
2018-07-21T10:41:13.176Z,100387.36
2018-07-21T10:42:13.947Z,100386.52
2018-07-21T10:43:14.725Z,100386.25
2018-07-21T10:44:15.529Z,100385.80
2018-07-21T10:45:16.307Z,100385.71
2018-07-21T10:46:17.080Z,100384.64
2018-07-21T10:47:17.859Z,100384.27
2018-07-21T10:48:18.652Z,100383.17
2018-07-21T10:49:19.455Z,100382.62
2018-07-21T10:50:20.232Z,100382.27
2018-07-21T10:51:21.004Z,100381.91
2018-07-21T10:52:21.783Z,100381.45
2018-07-21T10:53:22.655Z,100380.88
2018-07-21T10:54:22.386Z,100379.94
2018-07-21T10:55:24.160Z,100379.05
2018-07-21T10:56:24.942Z,100378.83
2018-07-21T10:57:25.721Z,100378.11
2018-07-21T10:58:26.508Z,100377.05
2018-07-21T10:59:27.303Z,100377.68
2018-07-21T11:00:28.081Z,100376.99
2018-07-21T11:01:28.857Z,100376.37
2018-07-21T11:02:29.632Z,100376.06
2018-07-21T11:03:30.435Z,100375.30
2018-07-21T11:04:31.243Z,100374.73
2018-07-21T11:05:32.019Z,100374.20
2018-07-21T11:06:32.796Z,100373.67
2018-07-21T11:07:33.568Z,100372.61
2018-07-21T11:08:34.436Z,100372.04
2018-07-21T11:09:34.166Z,100371.67
2018-07-21T11:10:35.940Z,100370.92
2018-07-21T11:11:36.719Z,100370.91
2018-07-21T11:12:37.496Z,100371.12
2018-07-21T11:13:38.268Z,100370.06
2018-07-21T11:14:39.074Z,100370.08
2018-07-21T11:15:39.857Z,100369.26
2018-07-21T11:16:40.628Z,100368.72
2018-07-21T11:17:41.410Z,100368.60
2018-07-21T11:18:42.185Z,100368.59
2018-07-21T11:19:43.983Z,100367.67
2018-07-21T11:20:43.757Z,100367.70
2018-07-21T11:21:44.544Z,100367.03
2018-07-21T11:22:45.319Z,100366.77
2018-07-21T11:23:46.100Z,100365.79
2018-07-21T11:24:46.900Z,100365.40
2018-07-21T11:25:47.683Z,100365.17
2018-07-21T11:26:48.456Z,100364.39
2018-07-21T11:27:49.232Z,100364.11
2018-07-21T11:28:50.007Z,100364.12
2018-07-21T11:29:50.812Z,100364.00
2018-07-21T11:30:51.598Z,100364.01
2018-07-21T11:31:52.377Z,100363.61
2018-07-21T11:32:53.160Z,100363.41
2018-07-21T11:33:53.929Z,100363.73
2018-07-21T11:34:54.739Z,100363.49
2018-07-21T11:35:55.778Z,100363.60
2018-07-21T11:36:55.297Z,100363.98
2018-07-21T11:37:57.072Z,100364.34
2018-07-21T11:38:57.850Z,100364.23
2018-07-21T11:39:58.663Z,100364.20
2018-07-21T11:40:59.437Z,100364.59
2018-07-21T11:42:00.212Z,100364.24
2018-07-21T11:43:00.987Z,100363.86
2018-07-21T11:44:01.763Z,100364.11
2018-07-21T11:45:02.590Z,100364.94
2018-07-21T11:46:03.354Z,100364.73
2018-07-21T11:47:04.140Z,100365.33
2018-07-21T11:48:04.907Z,100365.25
2018-07-21T11:49:05.685Z,100364.98
2018-07-21T11:50:06.490Z,100364.98
2018-07-21T11:51:07.267Z,100365.22
2018-07-21T11:52:08.041Z,100365.19
2018-07-21T11:53:09.811Z,100364.88
2018-07-21T11:54:09.591Z,100365.05
2018-07-21T11:55:10.401Z,100365.05
2018-07-21T11:56:11.175Z,100365.13